sensor_id;sensor_type;location;lat;lon;timestamp;temperature;humidity
67942;SHT31;54731;42.600;23.476;2024-02-26T00:02:08;8.38;81.34
67942;SHT31;54731;42.600;23.476;2024-02-26T00:04:33;8.38;81.52
67942;SHT31;54731;42.600;23.476;2024-02-26T00:06:59;8.45;81.41
67942;SHT31;54731;42.600;23.476;2024-02-26T00:09:24;8.43;81.44
67942;SHT31;54731;42.600;23.476;2024-02-26T00:11:49;8.45;81.45
67942;SHT31;54731;42.600;23.476;2024-02-26T00:14:15;8.46;81.38
67942;SHT31;54731;42.600;23.476;2024-02-26T00:16:40;8.49;81.33
67942;SHT31;54731;42.600;23.476;2024-02-26T00:19:05;8.45;81.43
67942;SHT31;54731;42.600;23.476;2024-02-26T00:21:31;8.42;81.31
67942;SHT31;54731;42.600;23.476;2024-02-26T00:23:56;8.45;81.30
67942;SHT31;54731;42.600;23.476;2024-02-26T00:26:21;8.43;81.24
67942;SHT31;54731;42.600;23.476;2024-02-26T00:28:47;8.48;81.29
67942;SHT31;54731;42.600;23.476;2024-02-26T00:31:12;8.46;81.08
67942;SHT31;54731;42.600;23.476;2024-02-26T00:33:37;8.41;80.97
67942;SHT31;54731;42.600;23.476;2024-02-26T00:36:03;8.39;80.87
67942;SHT31;54731;42.600;23.476;2024-02-26T00:38:28;8.36;80.90
67942;SHT31;54731;42.600;23.476;2024-02-26T00:40:54;8.38;80.93
67942;SHT31;54731;42.600;23.476;2024-02-26T00:43:19;8.33;80.96
67942;SHT31;54731;42.600;23.476;2024-02-26T00:45:44;8.25;81.04
67942;SHT31;54731;42.600;23.476;2024-02-26T00:48:09;8.26;81.01
67942;SHT31;54731;42.600;23.476;2024-02-26T00:50:35;8.11;81.09
67942;SHT31;54731;42.600;23.476;2024-02-26T00:53:01;8.15;81.01
67942;SHT31;54731;42.600;23.476;2024-02-26T00:55:26;8.12;80.90
67942;SHT31;54731;42.600;23.476;2024-02-26T00:57:52;8.12;81.03
67942;SHT31;54731;42.600;23.476;2024-02-26T01:00:17;8.09;81.19
67942;SHT31;54731;42.600;23.476;2024-02-26T01:02:43;7.95;81.56
67942;SHT31;54731;42.600;23.476;2024-02-26T01:05:08;7.99;81.62
67942;SHT31;54731;42.600;23.476;2024-02-26T01:07:34;8.05;81.40
67942;SHT31;54731;42.600;23.476;2024-02-26T01:09:59;8.05;81.28
67942;SHT31;54731;42.600;23.476;2024-02-26T01:12:24;8.02;81.09
67942;SHT31;54731;42.600;23.476;2024-02-26T01:14:50;7.98;81.09
67942;SHT31;54731;42.600;23.476;2024-02-26T01:17:15;7.99;81.05
67942;SHT31;54731;42.600;23.476;2024-02-26T01:19:40;8.01;81.12
67942;SHT31;54731;42.600;23.476;2024-02-26T01:22:05;8.03;81.10
67942;SHT31;54731;42.600;23.476;2024-02-26T01:24:31;8.03;81.10
67942;SHT31;54731;42.600;23.476;2024-02-26T01:26:56;8.03;81.11
67942;SHT31;54731;42.600;23.476;2024-02-26T01:29:21;8.03;81.06
67942;SHT31;54731;42.600;23.476;2024-02-26T01:31:47;8.06;81.03
67942;SHT31;54731;42.600;23.476;2024-02-26T01:34:12;8.12;80.95
67942;SHT31;54731;42.600;23.476;2024-02-26T01:36:37;8.08;81.11
67942;SHT31;54731;42.600;23.476;2024-02-26T01:39:02;8.09;80.99
67942;SHT31;54731;42.600;23.476;2024-02-26T01:41:28;8.02;80.96
67942;SHT31;54731;42.600;23.476;2024-02-26T01:43:53;7.98;80.88
67942;SHT31;54731;42.600;23.476;2024-02-26T01:46:20;7.97;80.96
67942;SHT31;54731;42.600;23.476;2024-02-26T01:48:45;7.97;80.85
67942;SHT31;54731;42.600;23.476;2024-02-26T01:51:12;7.97;80.87
67942;SHT31;54731;42.600;23.476;2024-02-26T01:53:39;7.92;80.80
67942;SHT31;54731;42.600;23.476;2024-02-26T01:56:05;7.92;80.69
67942;SHT31;54731;42.600;23.476;2024-02-26T01:58:30;7.95;80.63
67942;SHT31;54731;42.600;23.476;2024-02-26T02:00:56;7.97;80.48
67942;SHT31;54731;42.600;23.476;2024-02-26T02:03:22;7.94;80.51
67942;SHT31;54731;42.600;23.476;2024-02-26T02:05:48;7.97;80.49
67942;SHT31;54731;42.600;23.476;2024-02-26T02:08:13;8.02;80.15
67942;SHT31;54731;42.600;23.476;2024-02-26T02:10:39;8.01;80.11
67942;SHT31;54731;42.600;23.476;2024-02-26T02:13:04;7.88;80.35
67942;SHT31;54731;42.600;23.476;2024-02-26T02:15:29;7.82;80.64
67942;SHT31;54731;42.600;23.476;2024-02-26T02:17:55;7.78;80.63
67942;SHT31;54731;42.600;23.476;2024-02-26T02:20:33;7.84;80.45
67942;SHT31;54731;42.600;23.476;2024-02-26T02:22:59;7.71;80.85
67942;SHT31;54731;42.600;23.476;2024-02-26T02:25:24;7.60;81.08
67942;SHT31;54731;42.600;23.476;2024-02-26T02:27:50;7.61;81.00
67942;SHT31;54731;42.600;23.476;2024-02-26T02:30:16;7.61;81.04
67942;SHT31;54731;42.600;23.476;2024-02-26T02:32:42;7.61;80.89
67942;SHT31;54731;42.600;23.476;2024-02-26T02:35:08;7.73;80.67
67942;SHT31;54731;42.600;23.476;2024-02-26T02:37:33;7.74;80.46
67942;SHT31;54731;42.600;23.476;2024-02-26T02:39:59;7.70;80.55
67942;SHT31;54731;42.600;23.476;2024-02-26T02:42:24;7.71;80.59
67942;SHT31;54731;42.600;23.476;2024-02-26T02:44:49;7.73;80.51
67942;SHT31;54731;42.600;23.476;2024-02-26T02:47:15;7.80;80.39
67942;SHT31;54731;42.600;23.476;2024-02-26T02:49:40;7.78;80.28
67942;SHT31;54731;42.600;23.476;2024-02-26T02:52:05;7.84;80.26
67942;SHT31;54731;42.600;23.476;2024-02-26T02:54:31;7.75;80.02
67942;SHT31;54731;42.600;23.476;2024-02-26T02:56:56;7.75;80.21
67942;SHT31;54731;42.600;23.476;2024-02-26T02:59:21;7.74;80.35
67942;SHT31;54731;42.600;23.476;2024-02-26T03:01:47;7.74;80.43
67942;SHT31;54731;42.600;23.476;2024-02-26T03:04:12;7.71;80.44
67942;SHT31;54731;42.600;23.476;2024-02-26T03:06:37;7.73;80.50
67942;SHT31;54731;42.600;23.476;2024-02-26T03:09:03;7.75;80.54
67942;SHT31;54731;42.600;23.476;2024-02-26T03:11:28;7.80;80.28
67942;SHT31;54731;42.600;23.476;2024-02-26T03:13:53;7.81;80.29
67942;SHT31;54731;42.600;23.476;2024-02-26T03:16:19;7.82;80.29
67942;SHT31;54731;42.600;23.476;2024-02-26T03:18:44;7.85;80.22
67942;SHT31;54731;42.600;23.476;2024-02-26T03:21:09;7.85;80.10
67942;SHT31;54731;42.600;23.476;2024-02-26T03:23:35;7.75;80.41
67942;SHT31;54731;42.600;23.476;2024-02-26T03:26:00;7.81;80.28
67942;SHT31;54731;42.600;23.476;2024-02-26T03:28:25;7.81;80.32
67942;SHT31;54731;42.600;23.476;2024-02-26T03:30:50;7.80;80.43
67942;SHT31;54731;42.600;23.476;2024-02-26T03:33:16;7.82;80.39
67942;SHT31;54731;42.600;23.476;2024-02-26T03:35:41;7.88;80.19
67942;SHT31;54731;42.600;23.476;2024-02-26T03:38:06;7.90;80.12
67942;SHT31;54731;42.600;23.476;2024-02-26T03:40:32;7.82;80.15
67942;SHT31;54731;42.600;23.476;2024-02-26T03:42:57;7.84;80.20
67942;SHT31;54731;42.600;23.476;2024-02-26T03:45:22;7.81;80.07
67942;SHT31;54731;42.600;23.476;2024-02-26T03:47:48;7.75;80.13
67942;SHT31;54731;42.600;23.476;2024-02-26T03:50:13;7.74;80.29
67942;SHT31;54731;42.600;23.476;2024-02-26T03:52:38;7.67;80.61
67942;SHT31;54731;42.600;23.476;2024-02-26T03:55:04;7.66;80.50
67942;SHT31;54731;42.600;23.476;2024-02-26T03:57:30;7.64;80.33
67942;SHT31;54731;42.600;23.476;2024-02-26T03:59:56;7.66;80.39
67942;SHT31;54731;42.600;23.476;2024-02-26T04:02:21;7.64;80.23
67942;SHT31;54731;42.600;23.476;2024-02-26T04:04:46;7.63;80.25
67942;SHT31;54731;42.600;23.476;2024-02-26T04:07:12;7.58;80.28
67942;SHT31;54731;42.600;23.476;2024-02-26T04:09:37;7.61;80.26
67942;SHT31;54731;42.600;23.476;2024-02-26T04:12:02;7.60;79.95
67942;SHT31;54731;42.600;23.476;2024-02-26T04:14:28;7.57;80.03
67942;SHT31;54731;42.600;23.476;2024-02-26T04:16:53;7.57;80.05
67942;SHT31;54731;42.600;23.476;2024-02-26T04:19:18;7.60;80.17
67942;SHT31;54731;42.600;23.476;2024-02-26T04:21:44;7.51;80.14
67942;SHT31;54731;42.600;23.476;2024-02-26T04:24:09;7.60;79.93
67942;SHT31;54731;42.600;23.476;2024-02-26T04:26:34;7.64;79.79
67942;SHT31;54731;42.600;23.476;2024-02-26T04:29:00;7.66;79.63
67942;SHT31;54731;42.600;23.476;2024-02-26T04:31:25;7.63;79.91
67942;SHT31;54731;42.600;23.476;2024-02-26T04:33:50;7.60;79.70
67942;SHT31;54731;42.600;23.476;2024-02-26T04:36:16;7.50;79.95
67942;SHT31;54731;42.600;23.476;2024-02-26T04:38:44;7.47;80.20
67942;SHT31;54731;42.600;23.476;2024-02-26T04:41:10;7.54;79.90
67942;SHT31;54731;42.600;23.476;2024-02-26T04:43:35;7.50;79.97
67942;SHT31;54731;42.600;23.476;2024-02-26T04:46:01;7.50;79.70
67942;SHT31;54731;42.600;23.476;2024-02-26T04:48:27;7.58;79.43
67942;SHT31;54731;42.600;23.476;2024-02-26T04:50:52;7.60;79.17
67942;SHT31;54731;42.600;23.476;2024-02-26T04:53:18;7.63;79.07
67942;SHT31;54731;42.600;23.476;2024-02-26T04:55:43;7.58;79.19
67942;SHT31;54731;42.600;23.476;2024-02-26T04:58:08;7.54;79.70
67942;SHT31;54731;42.600;23.476;2024-02-26T05:00:34;7.57;79.72
67942;SHT31;54731;42.600;23.476;2024-02-26T05:02:59;7.58;79.61
67942;SHT31;54731;42.600;23.476;2024-02-26T05:05:24;7.56;79.77
67942;SHT31;54731;42.600;23.476;2024-02-26T05:07:50;7.60;79.62
67942;SHT31;54731;42.600;23.476;2024-02-26T05:10:15;7.58;79.57
67942;SHT31;54731;42.600;23.476;2024-02-26T05:12:40;7.51;79.86
67942;SHT31;54731;42.600;23.476;2024-02-26T05:15:06;7.46;79.78
67942;SHT31;54731;42.600;23.476;2024-02-26T05:17:31;7.43;79.89
67942;SHT31;54731;42.600;23.476;2024-02-26T05:19:56;7.43;79.99
67942;SHT31;54731;42.600;23.476;2024-02-26T05:22:22;7.43;79.86
67942;SHT31;54731;42.600;23.476;2024-02-26T05:24:47;7.47;79.55
67942;SHT31;54731;42.600;23.476;2024-02-26T05:27:12;7.46;79.65
67942;SHT31;54731;42.600;23.476;2024-02-26T05:29:38;7.43;79.63
67942;SHT31;54731;42.600;23.476;2024-02-26T05:32:04;7.38;79.77
67942;SHT31;54731;42.600;23.476;2024-02-26T05:34:30;7.46;79.83
67942;SHT31;54731;42.600;23.476;2024-02-26T05:36:55;7.44;79.97
67942;SHT31;54731;42.600;23.476;2024-02-26T05:39:21;7.48;79.98
67942;SHT31;54731;42.600;23.476;2024-02-26T05:41:46;7.42;79.91
67942;SHT31;54731;42.600;23.476;2024-02-26T05:44:12;7.40;80.22
67942;SHT31;54731;42.600;23.476;2024-02-26T05:46:37;7.47;80.27
67942;SHT31;54731;42.600;23.476;2024-02-26T05:49:02;7.48;80.40
67942;SHT31;54731;42.600;23.476;2024-02-26T05:51:27;7.54;80.41
67942;SHT31;54731;42.600;23.476;2024-02-26T05:53:53;7.66;80.11
67942;SHT31;54731;42.600;23.476;2024-02-26T05:56:18;7.68;79.87
67942;SHT31;54731;42.600;23.476;2024-02-26T05:58:43;7.71;79.79
67942;SHT31;54731;42.600;23.476;2024-02-26T06:01:09;7.70;79.71
67942;SHT31;54731;42.600;23.476;2024-02-26T06:03:34;7.82;79.49
67942;SHT31;54731;42.600;23.476;2024-02-26T06:06:00;7.87;79.37
67942;SHT31;54731;42.600;23.476;2024-02-26T06:08:25;7.88;79.22
67942;SHT31;54731;42.600;23.476;2024-02-26T06:10:50;7.97;79.05
67942;SHT31;54731;42.600;23.476;2024-02-26T06:13:16;8.01;78.76
67942;SHT31;54731;42.600;23.476;2024-02-26T06:15:41;8.06;78.67
67942;SHT31;54731;42.600;23.476;2024-02-26T06:18:06;8.06;78.71
67942;SHT31;54731;42.600;23.476;2024-02-26T06:20:32;8.12;78.81
67942;SHT31;54731;42.600;23.476;2024-02-26T06:22:57;8.18;78.50
67942;SHT31;54731;42.600;23.476;2024-02-26T06:25:22;8.16;78.05
67942;SHT31;54731;42.600;23.476;2024-02-26T06:27:47;8.25;77.81
67942;SHT31;54731;42.600;23.476;2024-02-26T06:30:13;8.24;77.65
67942;SHT31;54731;42.600;23.476;2024-02-26T06:32:38;8.22;77.83
67942;SHT31;54731;42.600;23.476;2024-02-26T06:35:04;8.24;77.89
67942;SHT31;54731;42.600;23.476;2024-02-26T06:37:29;8.25;77.85
67942;SHT31;54731;42.600;23.476;2024-02-26T06:39:54;8.25;77.94
67942;SHT31;54731;42.600;23.476;2024-02-26T06:42:20;8.33;78.15
67942;SHT31;54731;42.600;23.476;2024-02-26T06:44:45;8.39;78.07
67942;SHT31;54731;42.600;23.476;2024-02-26T06:47:10;8.38;78.00
67942;SHT31;54731;42.600;23.476;2024-02-26T06:49:36;8.36;77.46
67942;SHT31;54731;42.600;23.476;2024-02-26T06:52:01;8.35;77.74
67942;SHT31;54731;42.600;23.476;2024-02-26T06:54:26;8.39;77.98
67942;SHT31;54731;42.600;23.476;2024-02-26T06:56:52;8.48;77.89
67942;SHT31;54731;42.600;23.476;2024-02-26T06:59:17;8.50;77.70
67942;SHT31;54731;42.600;23.476;2024-02-26T07:01:42;8.57;77.67
67942;SHT31;54731;42.600;23.476;2024-02-26T07:04:08;8.60;77.72
67942;SHT31;54731;42.600;23.476;2024-02-26T07:06:34;8.67;77.41
67942;SHT31;54731;42.600;23.476;2024-02-26T07:08:59;8.79;77.31
67942;SHT31;54731;42.600;23.476;2024-02-26T07:11:24;8.90;77.17
67942;SHT31;54731;42.600;23.476;2024-02-26T07:13:49;8.94;76.97
67942;SHT31;54731;42.600;23.476;2024-02-26T07:16:15;8.96;76.46
67942;SHT31;54731;42.600;23.476;2024-02-26T07:18:41;8.96;76.43
67942;SHT31;54731;42.600;23.476;2024-02-26T07:21:06;9.08;76.53
67942;SHT31;54731;42.600;23.476;2024-02-26T07:23:32;9.13;76.43
67942;SHT31;54731;42.600;23.476;2024-02-26T07:25:57;9.21;76.55
67942;SHT31;54731;42.600;23.476;2024-02-26T07:28:23;9.26;76.38
67942;SHT31;54731;42.600;23.476;2024-02-26T07:30:48;9.32;76.37
67942;SHT31;54731;42.600;23.476;2024-02-26T07:33:14;9.35;76.21
67942;SHT31;54731;42.600;23.476;2024-02-26T07:35:39;9.41;76.44
67942;SHT31;54731;42.600;23.476;2024-02-26T07:38:05;9.55;75.83
67942;SHT31;54731;42.600;23.476;2024-02-26T07:40:30;9.63;75.78
67942;SHT31;54731;42.600;23.476;2024-02-26T07:42:56;9.63;75.83
67942;SHT31;54731;42.600;23.476;2024-02-26T07:45:22;9.59;75.86
67942;SHT31;54731;42.600;23.476;2024-02-26T07:47:47;9.55;75.64
67942;SHT31;54731;42.600;23.476;2024-02-26T07:50:13;9.48;76.16
67942;SHT31;54731;42.600;23.476;2024-02-26T07:52:39;9.61;76.49
67942;SHT31;54731;42.600;23.476;2024-02-26T07:55:05;9.72;75.81
67942;SHT31;54731;42.600;23.476;2024-02-26T07:57:32;9.78;75.56
67942;SHT31;54731;42.600;23.476;2024-02-26T07:59:57;9.79;74.54
67942;SHT31;54731;42.600;23.476;2024-02-26T08:02:23;9.85;74.35
67942;SHT31;54731;42.600;23.476;2024-02-26T08:04:48;9.69;74.81
67942;SHT31;54731;42.600;23.476;2024-02-26T08:07:13;9.63;75.49
67942;SHT31;54731;42.600;23.476;2024-02-26T08:09:39;9.81;75.49
67942;SHT31;54731;42.600;23.476;2024-02-26T08:12:04;10.01;75.04
67942;SHT31;54731;42.600;23.476;2024-02-26T08:14:30;10.23;74.64
67942;SHT31;54731;42.600;23.476;2024-02-26T08:16:55;10.34;73.68
67942;SHT31;54731;42.600;23.476;2024-02-26T08:19:21;10.47;73.65
67942;SHT31;54731;42.600;23.476;2024-02-26T08:21:46;10.37;73.54
67942;SHT31;54731;42.600;23.476;2024-02-26T08:24:11;10.44;74.28
67942;SHT31;54731;42.600;23.476;2024-02-26T08:26:37;10.54;73.20
67942;SHT31;54731;42.600;23.476;2024-02-26T08:29:02;10.63;72.72
67942;SHT31;54731;42.600;23.476;2024-02-26T08:31:27;10.70;72.57
67942;SHT31;54731;42.600;23.476;2024-02-26T08:33:52;10.78;72.18
67942;SHT31;54731;42.600;23.476;2024-02-26T08:36:18;10.80;72.04
67942;SHT31;54731;42.600;23.476;2024-02-26T08:38:43;10.93;71.77
67942;SHT31;54731;42.600;23.476;2024-02-26T08:41:08;10.91;71.92
67942;SHT31;54731;42.600;23.476;2024-02-26T08:43:34;11.01;71.31
67942;SHT31;54731;42.600;23.476;2024-02-26T08:45:59;11.08;71.48
67942;SHT31;54731;42.600;23.476;2024-02-26T08:48:25;11.19;71.58
67942;SHT31;54731;42.600;23.476;2024-02-26T08:50:50;11.22;71.38
67942;SHT31;54731;42.600;23.476;2024-02-26T08:53:16;11.28;71.34
67942;SHT31;54731;42.600;23.476;2024-02-26T08:55:41;11.35;71.48
67942;SHT31;54731;42.600;23.476;2024-02-26T08:58:07;11.46;71.48
67942;SHT31;54731;42.600;23.476;2024-02-26T09:00:32;11.39;70.15
67942;SHT31;54731;42.600;23.476;2024-02-26T09:02:57;11.43;70.74
67942;SHT31;54731;42.600;23.476;2024-02-26T09:05:23;11.48;70.40
67942;SHT31;54731;42.600;23.476;2024-02-26T09:07:48;11.61;69.89
67942;SHT31;54731;42.600;23.476;2024-02-26T09:10:13;11.65;69.83
67942;SHT31;54731;42.600;23.476;2024-02-26T09:12:39;11.62;70.33
67942;SHT31;54731;42.600;23.476;2024-02-26T09:15:05;11.70;70.43
67942;SHT31;54731;42.600;23.476;2024-02-26T09:17:30;11.82;70.12
67942;SHT31;54731;42.600;23.476;2024-02-26T09:19:56;11.92;69.06
67942;SHT31;54731;42.600;23.476;2024-02-26T09:22:21;11.87;69.89
67942;SHT31;54731;42.600;23.476;2024-02-26T09:24:46;11.93;69.00
67942;SHT31;54731;42.600;23.476;2024-02-26T09:27:12;12.03;69.12
67942;SHT31;54731;42.600;23.476;2024-02-26T09:29:37;12.17;68.71
67942;SHT31;54731;42.600;23.476;2024-02-26T09:32:02;12.29;68.55
67942;SHT31;54731;42.600;23.476;2024-02-26T09:34:29;12.31;67.80
67942;SHT31;54731;42.600;23.476;2024-02-26T09:36:54;12.27;68.03
67942;SHT31;54731;42.600;23.476;2024-02-26T09:39:19;12.38;67.17
67942;SHT31;54731;42.600;23.476;2024-02-26T09:41:45;12.36;67.36
67942;SHT31;54731;42.600;23.476;2024-02-26T09:44:10;12.44;66.69
67942;SHT31;54731;42.600;23.476;2024-02-26T09:46:37;12.47;66.49
67942;SHT31;54731;42.600;23.476;2024-02-26T09:49:02;12.50;66.81
67942;SHT31;54731;42.600;23.476;2024-02-26T09:51:28;12.55;66.53
67942;SHT31;54731;42.600;23.476;2024-02-26T09:53:53;12.60;66.27
67942;SHT31;54731;42.600;23.476;2024-02-26T09:56:20;12.64;66.15
67942;SHT31;54731;42.600;23.476;2024-02-26T09:58:46;12.64;66.13
67942;SHT31;54731;42.600;23.476;2024-02-26T10:01:16;12.65;66.22
67942;SHT31;54731;42.600;23.476;2024-02-26T10:03:42;12.69;66.22
67942;SHT31;54731;42.600;23.476;2024-02-26T10:06:08;12.73;65.73
67942;SHT31;54731;42.600;23.476;2024-02-26T10:08:35;12.81;65.96
67942;SHT31;54731;42.600;23.476;2024-02-26T10:11:00;12.89;65.61
67942;SHT31;54731;42.600;23.476;2024-02-26T10:13:25;12.94;65.51
67942;SHT31;54731;42.600;23.476;2024-02-26T10:15:51;12.92;65.66
67942;SHT31;54731;42.600;23.476;2024-02-26T10:18:16;12.99;64.89
67942;SHT31;54731;42.600;23.476;2024-02-26T10:20:41;13.05;64.89
67942;SHT31;54731;42.600;23.476;2024-02-26T10:23:07;13.12;64.79
67942;SHT31;54731;42.600;23.476;2024-02-26T10:25:32;13.18;64.93
67942;SHT31;54731;42.600;23.476;2024-02-26T10:28:01;13.16;64.76
67942;SHT31;54731;42.600;23.476;2024-02-26T10:30:27;13.26;64.36
67942;SHT31;54731;42.600;23.476;2024-02-26T10:32:52;13.25;63.16
67942;SHT31;54731;42.600;23.476;2024-02-26T10:35:18;13.30;63.11
67942;SHT31;54731;42.600;23.476;2024-02-26T10:37:44;13.43;62.52
67942;SHT31;54731;42.600;23.476;2024-02-26T10:40:11;13.35;61.64
67942;SHT31;54731;42.600;23.476;2024-02-26T10:42:36;13.53;61.78
67942;SHT31;54731;42.600;23.476;2024-02-26T10:45:02;13.59;60.90
67942;SHT31;54731;42.600;23.476;2024-02-26T10:47:27;13.59;60.61
67942;SHT31;54731;42.600;23.476;2024-02-26T10:49:52;13.62;61.43
67942;SHT31;54731;42.600;23.476;2024-02-26T10:52:19;13.74;60.95
67942;SHT31;54731;42.600;23.476;2024-02-26T10:54:47;13.83;60.56
67942;SHT31;54731;42.600;23.476;2024-02-26T10:57:13;13.83;60.34
67942;SHT31;54731;42.600;23.476;2024-02-26T10:59:42;14.00;60.89
67942;SHT31;54731;42.600;23.476;2024-02-26T11:02:10;13.90;60.41
67942;SHT31;54731;42.600;23.476;2024-02-26T11:04:37;13.76;61.35
67942;SHT31;54731;42.600;23.476;2024-02-26T11:07:03;13.96;61.98
67942;SHT31;54731;42.600;23.476;2024-02-26T11:09:29;14.04;60.92
67942;SHT31;54731;42.600;23.476;2024-02-26T11:11:56;14.18;60.51
67942;SHT31;54731;42.600;23.476;2024-02-26T11:14:22;14.21;58.62
67942;SHT31;54731;42.600;23.476;2024-02-26T11:16:49;14.04;59.49
67942;SHT31;54731;42.600;23.476;2024-02-26T11:19:15;13.97;58.95
67942;SHT31;54731;42.600;23.476;2024-02-26T11:21:41;13.93;57.89
67942;SHT31;54731;42.600;23.476;2024-02-26T11:24:08;13.89;58.81
67942;SHT31;54731;42.600;23.476;2024-02-26T11:26:40;13.83;58.69
67942;SHT31;54731;42.600;23.476;2024-02-26T11:29:09;13.84;58.90
67942;SHT31;54731;42.600;23.476;2024-02-26T11:31:35;13.80;58.08
67942;SHT31;54731;42.600;23.476;2024-02-26T11:34:02;13.89;58.37
67942;SHT31;54731;42.600;23.476;2024-02-26T11:36:28;13.84;57.29
67942;SHT31;54731;42.600;23.476;2024-02-26T11:38:55;13.79;58.15
67942;SHT31;54731;42.600;23.476;2024-02-26T11:41:20;13.94;57.56
67942;SHT31;54731;42.600;23.476;2024-02-26T11:43:53;14.04;56.81
67942;SHT31;54731;42.600;23.476;2024-02-26T11:46:33;14.10;57.15
67942;SHT31;54731;42.600;23.476;2024-02-26T11:49:00;14.23;56.97
67942;SHT31;54731;42.600;23.476;2024-02-26T11:51:35;14.27;55.30
67942;SHT31;54731;42.600;23.476;2024-02-26T11:54:00;14.30;55.90
67942;SHT31;54731;42.600;23.476;2024-02-26T11:56:26;14.49;57.99
67942;SHT31;54731;42.600;23.476;2024-02-26T11:58:57;14.62;56.79
67942;SHT31;54731;42.600;23.476;2024-02-26T12:01:47;14.68;55.67
67942;SHT31;54731;42.600;23.476;2024-02-26T12:04:16;14.85;55.13
67942;SHT31;54731;42.600;23.476;2024-02-26T12:09:12;14.74;55.23
67942;SHT31;54731;42.600;23.476;2024-02-26T12:11:38;14.67;55.53
67942;SHT31;54731;42.600;23.476;2024-02-26T12:14:05;14.86;54.65
67942;SHT31;54731;42.600;23.476;2024-02-26T12:16:40;14.99;54.77
67942;SHT31;54731;42.600;23.476;2024-02-26T12:19:06;15.10;54.50
67942;SHT31;54731;42.600;23.476;2024-02-26T12:21:36;15.10;54.01
67942;SHT31;54731;42.600;23.476;2024-02-26T12:24:13;14.98;54.55
67942;SHT31;54731;42.600;23.476;2024-02-26T12:26:39;14.99;54.44
67942;SHT31;54731;42.600;23.476;2024-02-26T12:29:05;15.07;53.29
67942;SHT31;54731;42.600;23.476;2024-02-26T12:31:32;15.03;52.90
67942;SHT31;54731;42.600;23.476;2024-02-26T12:33:58;15.06;52.42
67942;SHT31;54731;42.600;23.476;2024-02-26T12:36:24;15.03;53.68
67942;SHT31;54731;42.600;23.476;2024-02-26T12:38:52;15.18;53.46
67942;SHT31;54731;42.600;23.476;2024-02-26T12:41:18;14.95;52.94
67942;SHT31;54731;42.600;23.476;2024-02-26T12:43:43;15.20;53.91
67942;SHT31;54731;42.600;23.476;2024-02-26T12:46:10;15.39;51.68
67942;SHT31;54731;42.600;23.476;2024-02-26T12:48:35;15.27;51.99
67942;SHT31;54731;42.600;23.476;2024-02-26T12:51:00;15.39;51.11
67942;SHT31;54731;42.600;23.476;2024-02-26T12:53:29;15.59;50.95
67942;SHT31;54731;42.600;23.476;2024-02-26T12:55:55;15.77;49.73
67942;SHT31;54731;42.600;23.476;2024-02-26T12:58:21;15.74;49.62
67942;SHT31;54731;42.600;23.476;2024-02-26T13:00:47;15.96;49.08
67942;SHT31;54731;42.600;23.476;2024-02-26T13:03:13;16.10;49.23
67942;SHT31;54731;42.600;23.476;2024-02-26T13:05:39;16.10;48.73
67942;SHT31;54731;42.600;23.476;2024-02-26T13:08:05;16.32;49.32
67942;SHT31;54731;42.600;23.476;2024-02-26T13:10:31;16.53;49.53
67942;SHT31;54731;42.600;23.476;2024-02-26T13:12:57;16.69;45.90
67942;SHT31;54731;42.600;23.476;2024-02-26T13:15:22;16.71;46.89
67942;SHT31;54731;42.600;23.476;2024-02-26T13:17:48;16.34;46.13
67942;SHT31;54731;42.600;23.476;2024-02-26T13:20:25;16.59;46.09
67942;SHT31;54731;42.600;23.476;2024-02-26T13:22:51;16.76;46.28
67942;SHT31;54731;42.600;23.476;2024-02-26T13:25:24;16.71;45.27
67942;SHT31;54731;42.600;23.476;2024-02-26T13:27:49;16.02;46.10
67942;SHT31;54731;42.600;23.476;2024-02-26T13:30:15;16.24;47.56
67942;SHT31;54731;42.600;23.476;2024-02-26T13:32:40;16.29;47.09
67942;SHT31;54731;42.600;23.476;2024-02-26T13:35:07;16.42;47.40
67942;SHT31;54731;42.600;23.476;2024-02-26T13:37:34;16.34;46.16
67942;SHT31;54731;42.600;23.476;2024-02-26T13:39:59;16.47;46.27
67942;SHT31;54731;42.600;23.476;2024-02-26T13:42:24;16.55;46.14
67942;SHT31;54731;42.600;23.476;2024-02-26T13:44:50;16.38;46.80
67942;SHT31;54731;42.600;23.476;2024-02-26T13:47:16;16.35;45.70
67942;SHT31;54731;42.600;23.476;2024-02-26T13:49:42;16.32;46.32
67942;SHT31;54731;42.600;23.476;2024-02-26T13:52:07;16.15;45.50
67942;SHT31;54731;42.600;23.476;2024-02-26T13:54:32;16.24;46.49
67942;SHT31;54731;42.600;23.476;2024-02-26T13:56:58;16.24;45.07
67942;SHT31;54731;42.600;23.476;2024-02-26T13:59:23;15.81;46.02
67942;SHT31;54731;42.600;23.476;2024-02-26T14:01:48;15.69;47.78
67942;SHT31;54731;42.600;23.476;2024-02-26T14:04:14;15.76;47.02
67942;SHT31;54731;42.600;23.476;2024-02-26T14:06:39;16.01;46.47
67942;SHT31;54731;42.600;23.476;2024-02-26T14:09:05;16.12;46.56
67942;SHT31;54731;42.600;23.476;2024-02-26T14:11:30;16.21;46.14
67942;SHT31;54731;42.600;23.476;2024-02-26T14:13:55;16.20;45.78
67942;SHT31;54731;42.600;23.476;2024-02-26T14:16:21;16.08;46.71
67942;SHT31;54731;42.600;23.476;2024-02-26T14:18:46;16.14;45.65
67942;SHT31;54731;42.600;23.476;2024-02-26T14:21:11;16.10;46.11
67942;SHT31;54731;42.600;23.476;2024-02-26T14:23:37;16.04;46.93
67942;SHT31;54731;42.600;23.476;2024-02-26T14:26:03;16.05;45.93
67942;SHT31;54731;42.600;23.476;2024-02-26T14:28:29;15.90;45.96
67942;SHT31;54731;42.600;23.476;2024-02-26T14:30:55;15.98;46.39
67942;SHT31;54731;42.600;23.476;2024-02-26T14:33:20;15.93;45.02
67942;SHT31;54731;42.600;23.476;2024-02-26T14:35:45;15.89;46.24
67942;SHT31;54731;42.600;23.476;2024-02-26T14:38:10;15.89;46.37
67942;SHT31;54731;42.600;23.476;2024-02-26T14:40:36;15.74;45.64
67942;SHT31;54731;42.600;23.476;2024-02-26T14:43:01;15.70;46.35
67942;SHT31;54731;42.600;23.476;2024-02-26T14:45:26;15.69;46.63
67942;SHT31;54731;42.600;23.476;2024-02-26T14:47:52;15.61;46.55
67942;SHT31;54731;42.600;23.476;2024-02-26T14:50:17;15.29;46.78
67942;SHT31;54731;42.600;23.476;2024-02-26T14:52:42;15.23;46.96
67942;SHT31;54731;42.600;23.476;2024-02-26T14:55:08;15.25;47.70
67942;SHT31;54731;42.600;23.476;2024-02-26T14:57:33;15.23;48.00
67942;SHT31;54731;42.600;23.476;2024-02-26T14:59:58;15.19;47.94
67942;SHT31;54731;42.600;23.476;2024-02-26T15:02:23;15.19;47.05
67942;SHT31;54731;42.600;23.476;2024-02-26T15:04:49;15.15;47.86
67942;SHT31;54731;42.600;23.476;2024-02-26T15:07:14;15.15;47.65
67942;SHT31;54731;42.600;23.476;2024-02-26T15:09:39;15.05;48.21
67942;SHT31;54731;42.600;23.476;2024-02-26T15:12:05;15.00;48.68
67942;SHT31;54731;42.600;23.476;2024-02-26T15:14:30;14.75;48.60
67942;SHT31;54731;42.600;23.476;2024-02-26T15:16:56;14.72;48.47
67942;SHT31;54731;42.600;23.476;2024-02-26T15:19:21;14.75;49.09